sensor_id;sensor_type;location;lat;lon;timestamp;P1;durP1;ratioP1;P2;durP2;ratioP2
22644;SDS011;11489;50.834;6.752;2023-04-16T00:01:10;9.98;;;5.03;;
22644;SDS011;11489;50.834;6.752;2023-04-16T00:03:36;11.50;;;5.13;;
22644;SDS011;11489;50.834;6.752;2023-04-16T00:06:02;16.02;;;5.00;;
22644;SDS011;11489;50.834;6.752;2023-04-16T00:08:27;14.40;;;5.82;;
22644;SDS011;11489;50.834;6.752;2023-04-16T00:10:53;11.77;;;5.18;;
22644;SDS011;11489;50.834;6.752;2023-04-16T00:13:19;9.30;;;5.18;;
22644;SDS011;11489;50.834;6.752;2023-04-16T00:15:45;12.73;;;5.30;;
22644;SDS011;11489;50.834;6.752;2023-04-16T00:18:10;12.27;;;5.05;;
22644;SDS011;11489;50.834;6.752;2023-04-16T00:20:36;12.40;;;5.65;;
22644;SDS011;11489;50.834;6.752;2023-04-16T00:23:02;14.98;;;6.30;;
22644;SDS011;11489;50.834;6.752;2023-04-16T00:25:27;10.70;;;5.50;;
22644;SDS011;11489;50.834;6.752;2023-04-16T00:27:53;13.93;;;6.05;;
22644;SDS011;11489;50.834;6.752;2023-04-16T00:30:19;15.30;;;6.05;;
22644;SDS011;11489;50.834;6.752;2023-04-16T00:32:44;10.25;;;5.03;;
22644;SDS011;11489;50.834;6.752;2023-04-16T00:35:10;16.77;;;6.10;;
22644;SDS011;11489;50.834;6.752;2023-04-16T00:37:35;10.43;;;5.53;;
22644;SDS011;11489;50.834;6.752;2023-04-16T00:40:01;14.02;;;5.85;;
22644;SDS011;11489;50.834;6.752;2023-04-16T00:42:27;11.98;;;5.38;;
22644;SDS011;11489;50.834;6.752;2023-04-16T00:44:53;12.10;;;5.15;;
22644;SDS011;11489;50.834;6.752;2023-04-16T00:47:18;10.52;;;6.00;;
22644;SDS011;11489;50.834;6.752;2023-04-16T00:49:45;12.23;;;6.10;;
22644;SDS011;11489;50.834;6.752;2023-04-16T00:52:11;12.95;;;6.15;;
22644;SDS011;11489;50.834;6.752;2023-04-16T00:54:37;14.93;;;6.78;;
22644;SDS011;11489;50.834;6.752;2023-04-16T00:57:03;14.98;;;6.60;;
22644;SDS011;11489;50.834;6.752;2023-04-16T00:59:30;14.25;;;6.50;;
22644;SDS011;11489;50.834;6.752;2023-04-16T01:01:56;15.40;;;6.03;;
22644;SDS011;11489;50.834;6.752;2023-04-16T01:04:22;12.15;;;6.50;;
22644;SDS011;11489;50.834;6.752;2023-04-16T01:06:48;14.95;;;6.10;;
22644;SDS011;11489;50.834;6.752;2023-04-16T01:09:13;13.93;;;6.80;;
22644;SDS011;11489;50.834;6.752;2023-04-16T01:11:39;17.48;;;6.75;;
22644;SDS011;11489;50.834;6.752;2023-04-16T01:14:05;14.07;;;6.50;;
22644;SDS011;11489;50.834;6.752;2023-04-16T01:16:31;15.18;;;6.80;;
22644;SDS011;11489;50.834;6.752;2023-04-16T01:18:57;12.95;;;6.55;;
22644;SDS011;11489;50.834;6.752;2023-04-16T01:21:22;17.25;;;6.80;;
22644;SDS011;11489;50.834;6.752;2023-04-16T01:23:48;14.48;;;7.13;;
22644;SDS011;11489;50.834;6.752;2023-04-16T01:26:14;15.23;;;7.20;;
22644;SDS011;11489;50.834;6.752;2023-04-16T01:28:40;14.68;;;7.13;;
22644;SDS011;11489;50.834;6.752;2023-04-16T01:31:06;15.13;;;6.82;;
22644;SDS011;11489;50.834;6.752;2023-04-16T01:33:31;17.15;;;6.80;;
22644;SDS011;11489;50.834;6.752;2023-04-16T01:35:57;14.77;;;6.20;;
22644;SDS011;11489;50.834;6.752;2023-04-16T01:38:22;12.27;;;6.75;;
22644;SDS011;11489;50.834;6.752;2023-04-16T01:40:48;15.13;;;6.60;;
22644;SDS011;11489;50.834;6.752;2023-04-16T01:43:14;16.55;;;6.80;;
22644;SDS011;11489;50.834;6.752;2023-04-16T01:45:39;14.15;;;7.07;;
22644;SDS011;11489;50.834;6.752;2023-04-16T01:48:05;14.32;;;6.75;;
22644;SDS011;11489;50.834;6.752;2023-04-16T01:50:31;18.10;;;6.95;;
22644;SDS011;11489;50.834;6.752;2023-04-16T01:52:57;18.70;;;7.47;;
22644;SDS011;11489;50.834;6.752;2023-04-16T01:55:23;15.55;;;7.47;;
22644;SDS011;11489;50.834;6.752;2023-04-16T01:57:49;10.73;;;6.20;;
22644;SDS011;11489;50.834;6.752;2023-04-16T02:00:15;17.27;;;7.18;;
22644;SDS011;11489;50.834;6.752;2023-04-16T02:02:40;14.43;;;7.13;;
22644;SDS011;11489;50.834;6.752;2023-04-16T02:05:06;13.65;;;7.30;;
22644;SDS011;11489;50.834;6.752;2023-04-16T02:07:32;13.98;;;7.13;;
22644;SDS011;11489;50.834;6.752;2023-04-16T02:09:57;13.18;;;6.60;;
22644;SDS011;11489;50.834;6.752;2023-04-16T02:12:23;17.63;;;7.60;;
22644;SDS011;11489;50.834;6.752;2023-04-16T02:14:49;16.80;;;7.20;;
22644;SDS011;11489;50.834;6.752;2023-04-16T02:17:15;15.80;;;7.22;;
22644;SDS011;11489;50.834;6.752;2023-04-16T02:19:41;17.83;;;7.95;;
22644;SDS011;11489;50.834;6.752;2023-04-16T02:22:06;18.58;;;7.72;;
22644;SDS011;11489;50.834;6.752;2023-04-16T02:24:32;16.52;;;7.38;;
22644;SDS011;11489;50.834;6.752;2023-04-16T02:26:58;17.73;;;7.40;;
22644;SDS011;11489;50.834;6.752;2023-04-16T02:29:23;15.20;;;7.88;;
22644;SDS011;11489;50.834;6.752;2023-04-16T02:31:49;16.98;;;7.45;;
22644;SDS011;11489;50.834;6.752;2023-04-16T02:34:15;16.00;;;8.60;;
22644;SDS011;11489;50.834;6.752;2023-04-16T02:36:40;18.40;;;7.90;;
22644;SDS011;11489;50.834;6.752;2023-04-16T02:39:06;15.55;;;8.30;;
22644;SDS011;11489;50.834;6.752;2023-04-16T02:41:32;17.17;;;8.50;;
22644;SDS011;11489;50.834;6.752;2023-04-16T02:43:57;21.05;;;9.57;;
22644;SDS011;11489;50.834;6.752;2023-04-16T02:46:23;17.80;;;8.45;;
22644;SDS011;11489;50.834;6.752;2023-04-16T02:48:49;18.80;;;8.88;;
22644;SDS011;11489;50.834;6.752;2023-04-16T02:51:14;15.38;;;8.00;;
22644;SDS011;11489;50.834;6.752;2023-04-16T02:53:40;18.65;;;8.57;;
22644;SDS011;11489;50.834;6.752;2023-04-16T02:56:10;16.02;;;8.88;;
22644;SDS011;11489;50.834;6.752;2023-04-16T02:58:36;17.63;;;8.45;;
22644;SDS011;11489;50.834;6.752;2023-04-16T03:01:01;24.65;;;9.90;;
22644;SDS011;11489;50.834;6.752;2023-04-16T03:03:27;27.63;;;10.10;;
22644;SDS011;11489;50.834;6.752;2023-04-16T03:05:53;20.55;;;8.85;;
22644;SDS011;11489;50.834;6.752;2023-04-16T03:08:18;17.58;;;9.73;;
22644;SDS011;11489;50.834;6.752;2023-04-16T03:10:44;20.35;;;10.05;;
22644;SDS011;11489;50.834;6.752;2023-04-16T03:13:10;15.90;;;8.05;;
22644;SDS011;11489;50.834;6.752;2023-04-16T03:15:35;19.08;;;9.82;;
22644;SDS011;11489;50.834;6.752;2023-04-16T03:18:01;21.00;;;9.38;;
22644;SDS011;11489;50.834;6.752;2023-04-16T03:20:27;15.90;;;9.30;;
22644;SDS011;11489;50.834;6.752;2023-04-16T03:22:52;25.95;;;10.23;;
22644;SDS011;11489;50.834;6.752;2023-04-16T03:25:18;17.67;;;8.73;;
22644;SDS011;11489;50.834;6.752;2023-04-16T03:27:44;20.70;;;9.10;;
22644;SDS011;11489;50.834;6.752;2023-04-16T03:30:10;17.77;;;9.65;;
22644;SDS011;11489;50.834;6.752;2023-04-16T03:32:36;23.60;;;10.18;;
22644;SDS011;11489;50.834;6.752;2023-04-16T03:35:02;19.75;;;10.05;;
22644;SDS011;11489;50.834;6.752;2023-04-16T03:37:29;24.20;;;10.85;;
22644;SDS011;11489;50.834;6.752;2023-04-16T03:39:54;23.60;;;10.45;;
22644;SDS011;11489;50.834;6.752;2023-04-16T03:42:20;22.00;;;10.43;;
22644;SDS011;11489;50.834;6.752;2023-04-16T03:44:46;23.08;;;10.88;;
22644;SDS011;11489;50.834;6.752;2023-04-16T03:47:11;22.20;;;11.43;;
22644;SDS011;11489;50.834;6.752;2023-04-16T03:49:37;19.85;;;9.90;;
22644;SDS011;11489;50.834;6.752;2023-04-16T03:52:03;20.83;;;11.15;;
22644;SDS011;11489;50.834;6.752;2023-04-16T03:54:28;21.35;;;11.32;;
22644;SDS011;11489;50.834;6.752;2023-04-16T03:56:54;24.92;;;11.85;;
22644;SDS011;11489;50.834;6.752;2023-04-16T03:59:21;28.27;;;13.10;;
22644;SDS011;11489;50.834;6.752;2023-04-16T04:01:46;21.45;;;11.55;;
22644;SDS011;11489;50.834;6.752;2023-04-16T04:04:12;25.33;;;11.57;;
22644;SDS011;11489;50.834;6.752;2023-04-16T04:06:38;22.02;;;10.70;;
22644;SDS011;11489;50.834;6.752;2023-04-16T04:09:04;22.98;;;11.20;;
22644;SDS011;11489;50.834;6.752;2023-04-16T04:11:30;22.75;;;11.60;;
22644;SDS011;11489;50.834;6.752;2023-04-16T04:13:55;25.80;;;12.20;;
22644;SDS011;11489;50.834;6.752;2023-04-16T04:16:21;28.30;;;13.13;;
22644;SDS011;11489;50.834;6.752;2023-04-16T04:18:46;25.35;;;12.20;;
22644;SDS011;11489;50.834;6.752;2023-04-16T04:21:12;24.98;;;12.32;;
22644;SDS011;11489;50.834;6.752;2023-04-16T04:23:38;24.42;;;11.82;;
22644;SDS011;11489;50.834;6.752;2023-04-16T04:26:05;27.50;;;13.05;;
22644;SDS011;11489;50.834;6.752;2023-04-16T04:28:31;22.58;;;12.30;;
22644;SDS011;11489;50.834;6.752;2023-04-16T04:30:58;23.95;;;12.15;;
22644;SDS011;11489;50.834;6.752;2023-04-16T04:33:26;27.67;;;13.00;;
22644;SDS011;11489;50.834;6.752;2023-04-16T04:35:53;24.30;;;12.90;;
22644;SDS011;11489;50.834;6.752;2023-04-16T04:38:19;26.40;;;12.70;;
22644;SDS011;11489;50.834;6.752;2023-04-16T04:40:46;22.88;;;12.27;;
22644;SDS011;11489;50.834;6.752;2023-04-16T04:43:12;29.80;;;13.43;;
22644;SDS011;11489;50.834;6.752;2023-04-16T04:45:38;22.30;;;12.45;;
22644;SDS011;11489;50.834;6.752;2023-04-16T04:48:04;21.85;;;11.82;;
22644;SDS011;11489;50.834;6.752;2023-04-16T04:50:30;20.92;;;11.52;;
22644;SDS011;11489;50.834;6.752;2023-04-16T04:52:56;19.30;;;10.90;;
22644;SDS011;11489;50.834;6.752;2023-04-16T04:55:22;23.42;;;11.25;;
22644;SDS011;11489;50.834;6.752;2023-04-16T04:57:48;24.45;;;12.20;;
22644;SDS011;11489;50.834;6.752;2023-04-16T05:00:14;24.33;;;11.90;;
22644;SDS011;11489;50.834;6.752;2023-04-16T05:02:40;20.35;;;11.05;;
22644;SDS011;11489;50.834;6.752;2023-04-16T05:05:06;26.98;;;11.23;;
22644;SDS011;11489;50.834;6.752;2023-04-16T05:07:32;24.00;;;13.02;;
22644;SDS011;11489;50.834;6.752;2023-04-16T05:09:58;20.50;;;11.15;;
22644;SDS011;11489;50.834;6.752;2023-04-16T05:12:23;23.13;;;11.95;;
22644;SDS011;11489;50.834;6.752;2023-04-16T05:14:49;20.98;;;11.60;;
22644;SDS011;11489;50.834;6.752;2023-04-16T05:17:14;20.38;;;10.95;;
22644;SDS011;11489;50.834;6.752;2023-04-16T05:19:40;27.15;;;12.00;;
22644;SDS011;11489;50.834;6.752;2023-04-16T05:22:06;23.77;;;11.07;;
22644;SDS011;11489;50.834;6.752;2023-04-16T05:24:32;20.98;;;11.32;;
22644;SDS011;11489;50.834;6.752;2023-04-16T05:26:57;22.30;;;12.18;;
22644;SDS011;11489;50.834;6.752;2023-04-16T05:29:23;22.83;;;11.32;;
22644;SDS011;11489;50.834;6.752;2023-04-16T05:31:49;25.98;;;11.90;;
22644;SDS011;11489;50.834;6.752;2023-04-16T05:34:15;20.83;;;11.43;;
22644;SDS011;11489;50.834;6.752;2023-04-16T05:36:40;23.33;;;12.10;;
22644;SDS011;11489;50.834;6.752;2023-04-16T05:39:06;25.50;;;12.75;;
22644;SDS011;11489;50.834;6.752;2023-04-16T05:41:32;22.30;;;11.27;;
22644;SDS011;11489;50.834;6.752;2023-04-16T05:43:58;26.08;;;11.90;;
22644;SDS011;11489;50.834;6.752;2023-04-16T05:46:24;24.25;;;11.82;;
22644;SDS011;11489;50.834;6.752;2023-04-16T05:48:50;21.30;;;11.55;;
22644;SDS011;11489;50.834;6.752;2023-04-16T05:51:16;24.48;;;11.95;;
22644;SDS011;11489;50.834;6.752;2023-04-16T05:53:42;27.55;;;12.30;;
22644;SDS011;11489;50.834;6.752;2023-04-16T05:56:07;25.63;;;13.18;;
22644;SDS011;11489;50.834;6.752;2023-04-16T05:58:33;26.10;;;12.93;;
22644;SDS011;11489;50.834;6.752;2023-04-16T06:00:59;26.42;;;12.65;;
22644;SDS011;11489;50.834;6.752;2023-04-16T06:03:25;24.27;;;12.40;;
22644;SDS011;11489;50.834;6.752;2023-04-16T06:05:51;23.67;;;11.88;;
22644;SDS011;11489;50.834;6.752;2023-04-16T06:08:17;21.98;;;11.25;;
22644;SDS011;11489;50.834;6.752;2023-04-16T06:10:46;30.50;;;13.35;;
22644;SDS011;11489;50.834;6.752;2023-04-16T06:13:12;26.20;;;12.32;;
22644;SDS011;11489;50.834;6.752;2023-04-16T06:15:38;28.20;;;13.43;;
22644;SDS011;11489;50.834;6.752;2023-04-16T06:18:03;24.90;;;12.73;;
22644;SDS011;11489;50.834;6.752;2023-04-16T06:20:29;24.90;;;13.25;;
22644;SDS011;11489;50.834;6.752;2023-04-16T06:22:55;29.05;;;12.55;;
22644;SDS011;11489;50.834;6.752;2023-04-16T06:25:21;26.23;;;12.77;;
22644;SDS011;11489;50.834;6.752;2023-04-16T06:27:47;23.67;;;11.88;;
22644;SDS011;11489;50.834;6.752;2023-04-16T06:30:14;25.00;;;12.48;;
22644;SDS011;11489;50.834;6.752;2023-04-16T06:32:41;23.38;;;11.95;;
22644;SDS011;11489;50.834;6.752;2023-04-16T06:35:07;28.05;;;14.30;;
22644;SDS011;11489;50.834;6.752;2023-04-16T06:37:33;24.17;;;13.40;;
22644;SDS011;11489;50.834;6.752;2023-04-16T06:39:59;28.08;;;13.15;;
22644;SDS011;11489;50.834;6.752;2023-04-16T06:42:25;25.70;;;12.70;;
22644;SDS011;11489;50.834;6.752;2023-04-16T06:44:51;25.75;;;12.50;;
22644;SDS011;11489;50.834;6.752;2023-04-16T06:47:16;26.52;;;13.80;;
22644;SDS011;11489;50.834;6.752;2023-04-16T06:49:42;27.92;;;13.93;;
22644;SDS011;11489;50.834;6.752;2023-04-16T06:52:07;24.60;;;13.40;;
22644;SDS011;11489;50.834;6.752;2023-04-16T06:54:33;24.50;;;12.63;;
22644;SDS011;11489;50.834;6.752;2023-04-16T06:56:59;27.15;;;13.05;;
22644;SDS011;11489;50.834;6.752;2023-04-16T06:59:25;25.33;;;12.18;;
22644;SDS011;11489;50.834;6.752;2023-04-16T07:01:51;25.38;;;13.27;;
22644;SDS011;11489;50.834;6.752;2023-04-16T07:04:16;27.35;;;13.60;;
22644;SDS011;11489;50.834;6.752;2023-04-16T07:06:42;28.73;;;13.35;;
22644;SDS011;11489;50.834;6.752;2023-04-16T07:09:08;26.48;;;13.20;;
22644;SDS011;11489;50.834;6.752;2023-04-16T07:11:34;28.02;;;13.65;;
22644;SDS011;11489;50.834;6.752;2023-04-16T07:13:59;31.77;;;14.68;;
22644;SDS011;11489;50.834;6.752;2023-04-16T07:16:25;36.80;;;14.93;;
22644;SDS011;11489;50.834;6.752;2023-04-16T07:18:51;26.70;;;13.80;;
22644;SDS011;11489;50.834;6.752;2023-04-16T07:21:17;33.08;;;15.25;;
22644;SDS011;11489;50.834;6.752;2023-04-16T07:23:42;31.10;;;15.63;;
22644;SDS011;11489;50.834;6.752;2023-04-16T07:26:08;26.67;;;13.93;;
22644;SDS011;11489;50.834;6.752;2023-04-16T07:28:34;31.98;;;14.02;;
22644;SDS011;11489;50.834;6.752;2023-04-16T07:31:00;29.13;;;15.32;;
22644;SDS011;11489;50.834;6.752;2023-04-16T07:33:25;30.33;;;14.88;;
22644;SDS011;11489;50.834;6.752;2023-04-16T07:35:51;33.55;;;16.60;;
22644;SDS011;11489;50.834;6.752;2023-04-16T07:38:17;30.02;;;14.93;;
22644;SDS011;11489;50.834;6.752;2023-04-16T07:40:42;29.52;;;15.70;;
22644;SDS011;11489;50.834;6.752;2023-04-16T07:43:08;31.02;;;15.73;;
22644;SDS011;11489;50.834;6.752;2023-04-16T07:45:34;36.90;;;17.85;;
22644;SDS011;11489;50.834;6.752;2023-04-16T07:48:00;34.92;;;16.73;;
22644;SDS011;11489;50.834;6.752;2023-04-16T07:50:25;31.70;;;15.90;;
22644;SDS011;11489;50.834;6.752;2023-04-16T07:52:52;36.35;;;18.77;;
22644;SDS011;11489;50.834;6.752;2023-04-16T07:55:17;35.35;;;18.55;;
22644;SDS011;11489;50.834;6.752;2023-04-16T07:57:43;34.30;;;17.40;;
22644;SDS011;11489;50.834;6.752;2023-04-16T08:00:09;33.45;;;16.67;;
22644;SDS011;11489;50.834;6.752;2023-04-16T08:02:35;32.40;;;16.98;;
22644;SDS011;11489;50.834;6.752;2023-04-16T08:05:01;41.15;;;17.90;;
22644;SDS011;11489;50.834;6.752;2023-04-16T08:07:27;29.88;;;16.52;;
22644;SDS011;11489;50.834;6.752;2023-04-16T08:09:53;32.10;;;16.35;;
22644;SDS011;11489;50.834;6.752;2023-04-16T08:12:19;30.73;;;16.50;;
22644;SDS011;11489;50.834;6.752;2023-04-16T08:14:45;32.10;;;15.82;;
22644;SDS011;11489;50.834;6.752;2023-04-16T08:17:12;35.42;;;17.08;;
22644;SDS011;11489;50.834;6.752;2023-04-16T08:19:38;33.80;;;17.08;;
22644;SDS011;11489;50.834;6.752;2023-04-16T08:22:04;34.72;;;18.75;;
22644;SDS011;11489;50.834;6.752;2023-04-16T08:24:30;39.17;;;17.90;;
22644;SDS011;11489;50.834;6.752;2023-04-16T08:26:56;34.00;;;17.17;;
22644;SDS011;11489;50.834;6.752;2023-04-16T08:29:21;33.42;;;17.45;;
22644;SDS011;11489;50.834;6.752;2023-04-16T08:31:50;35.17;;;17.05;;
22644;SDS011;11489;50.834;6.752;2023-04-16T08:34:19;34.85;;;17.92;;
22644;SDS011;11489;50.834;6.752;2023-04-16T08:36:45;33.25;;;17.23;;
22644;SDS011;11489;50.834;6.752;2023-04-16T08:39:11;38.10;;;18.80;;
22644;SDS011;11489;50.834;6.752;2023-04-16T08:41:37;35.95;;;17.55;;
22644;SDS011;11489;50.834;6.752;2023-04-16T08:44:07;32.95;;;18.27;;
22644;SDS011;11489;50.834;6.752;2023-04-16T08:46:36;36.85;;;18.25;;
22644;SDS011;11489;50.834;6.752;2023-04-16T08:49:05;52.42;;;24.33;;
22644;SDS011;11489;50.834;6.752;2023-04-16T08:51:34;51.78;;;23.88;;
22644;SDS011;11489;50.834;6.752;2023-04-16T08:54:04;48.88;;;23.33;;
22644;SDS011;11489;50.834;6.752;2023-04-16T08:56:34;68.38;;;29.00;;
22644;SDS011;11489;50.834;6.752;2023-04-16T08:59:01;61.95;;;26.17;;
22644;SDS011;11489;50.834;6.752;2023-04-16T09:01:31;68.30;;;30.90;;
22644;SDS011;11489;50.834;6.752;2023-04-16T09:03:57;73.82;;;31.38;;
22644;SDS011;11489;50.834;6.752;2023-04-16T09:06:26;73.22;;;31.10;;
22644;SDS011;11489;50.834;6.752;2023-04-16T09:08:53;85.88;;;32.42;;
22644;SDS011;11489;50.834;6.752;2023-04-16T09:11:19;74.25;;;30.65;;
22644;SDS011;11489;50.834;6.752;2023-04-16T09:13:45;81.78;;;35.63;;
22644;SDS011;11489;50.834;6.752;2023-04-16T09:16:11;74.43;;;33.88;;
22644;SDS011;11489;50.834;6.752;2023-04-16T09:18:38;74.60;;;31.48;;
22644;SDS011;11489;50.834;6.752;2023-04-16T09:21:04;63.00;;;29.52;;
22644;SDS011;11489;50.834;6.752;2023-04-16T09:23:31;69.75;;;31.20;;
22644;SDS011;11489;50.834;6.752;2023-04-16T09:25:57;66.25;;;30.48;;
22644;SDS011;11489;50.834;6.752;2023-04-16T09:28:42;61.85;;;29.50;;
22644;SDS011;11489;50.834;6.752;2023-04-16T09:31:15;56.95;;;28.50;;
22644;SDS011;11489;50.834;6.752;2023-04-16T09:33:43;60.97;;;29.23;;
22644;SDS011;11489;50.834;6.752;2023-04-16T09:36:24;65.53;;;31.02;;
22644;SDS011;11489;50.834;6.752;2023-04-16T09:38:52;59.20;;;28.23;;
22644;SDS011;11489;50.834;6.752;2023-04-16T09:41:18;62.78;;;28.77;;
22644;SDS011;11489;50.834;6.752;2023-04-16T09:44:01;63.05;;;28.85;;
22644;SDS011;11489;50.834;6.752;2023-04-16T09:46:35;59.25;;;28.67;;
22644;SDS011;11489;50.834;6.752;2023-04-16T09:49:07;54.22;;;27.13;;
22644;SDS011;11489;50.834;6.752;2023-04-16T09:51:40;57.45;;;29.27;;
22644;SDS011;11489;50.834;6.752;2023-04-16T09:54:06;58.55;;;28.63;;
22644;SDS011;11489;50.834;6.752;2023-04-16T09:56:33;62.25;;;29.20;;
22644;SDS011;11489;50.834;6.752;2023-04-16T09:59:08;58.08;;;27.73;;
22644;SDS011;11489;50.834;6.752;2023-04-16T10:01:46;51.30;;;26.45;;
22644;SDS011;11489;50.834;6.752;2023-04-16T10:04:17;51.00;;;25.35;;
22644;SDS011;11489;50.834;6.752;2023-04-16T10:06:43;46.08;;;24.30;;
22644;SDS011;11489;50.834;6.752;2023-04-16T10:09:10;48.38;;;25.70;;
22644;SDS011;11489;50.834;6.752;2023-04-16T10:11:36;43.55;;;23.02;;
22644;SDS011;11489;50.834;6.752;2023-04-16T10:14:02;43.58;;;23.85;;
22644;SDS011;11489;50.834;6.752;2023-04-16T10:16:28;45.53;;;23.95;;
22644;SDS011;11489;50.834;6.752;2023-04-16T10:18:54;45.58;;;23.75;;
22644;SDS011;11489;50.834;6.752;2023-04-16T10:21:20;44.08;;;23.92;;
22644;SDS011;11489;50.834;6.752;2023-04-16T10:23:46;46.35;;;25.05;;
22644;SDS011;11489;50.834;6.752;2023-04-16T10:26:13;50.88;;;26.30;;
22644;SDS011;11489;50.834;6.752;2023-04-16T10:28:42;44.17;;;25.23;;
22644;SDS011;11489;50.834;6.752;2023-04-16T10:31:09;49.47;;;27.00;;
22644;SDS011;11489;50.834;6.752;2023-04-16T10:33:38;57.83;;;30.70;;
22644;SDS011;11489;50.834;6.752;2023-04-16T10:36:15;56.05;;;30.48;;
22644;SDS011;11489;50.834;6.752;2023-04-16T10:38:48;61.55;;;30.75;;
22644;SDS011;11489;50.834;6.752;2023-04-16T10:41:18;59.08;;;32.05;;
22644;SDS011;11489;50.834;6.752;2023-04-16T10:43:45;56.25;;;31.08;;
22644;SDS011;11489;50.834;6.752;2023-04-16T10:46:21;58.13;;;32.05;;
22644;SDS011;11489;50.834;6.752;2023-04-16T10:48:49;57.30;;;30.88;;
22644;SDS011;11489;50.834;6.752;2023-04-16T10:54:20;56.30;;;31.15;;
22644;SDS011;11489;50.834;6.752;2023-04-16T10:56:48;62.17;;;31.50;;
22644;SDS011;11489;50.834;6.752;2023-04-16T10:59:16;48.92;;;28.17;;
22644;SDS011;11489;50.834;6.752;2023-04-16T11:01:48;50.10;;;27.30;;
22644;SDS011;11489;50.834;6.752;2023-04-16T11:12:36;46.97;;;25.23;;
22644;SDS011;11489;50.834;6.752;2023-04-16T11:15:16;42.85;;;23.35;;
22644;SDS011;11489;50.834;6.752;2023-04-16T11:17:46;51.13;;;28.95;;
22644;SDS011;11489;50.834;6.752;2023-04-16T11:20:17;47.45;;;26.77;;
22644;SDS011;11489;50.834;6.752;2023-04-16T11:22:50;43.03;;;25.00;;
22644;SDS011;11489;50.834;6.752;2023-04-16T11:25:19;42.00;;;22.98;;
22644;SDS011;11489;50.834;6.752;2023-04-16T11:27:46;39.53;;;22.73;;
22644;SDS011;11489;50.834;6.752;2023-04-16T11:30:12;38.70;;;22.55;;
22644;SDS011;11489;50.834;6.752;2023-04-16T11:32:38;45.88;;;25.00;;
22644;SDS011;11489;50.834;6.752;2023-04-16T11:35:12;40.65;;;23.50;;
22644;SDS011;11489;50.834;6.752;2023-04-16T11:37:40;37.25;;;23.35;;
22644;SDS011;11489;50.834;6.752;2023-04-16T11:40:06;39.97;;;23.75;;
22644;SDS011;11489;50.834;6.752;2023-04-16T11:42:36;38.10;;;24.05;;
22644;SDS011;11489;50.834;6.752;2023-04-16T11:45:05;37.55;;;24.52;;
22644;SDS011;11489;50.834;6.752;2023-04-16T11:47:32;40.95;;;24.08;;
22644;SDS011;11489;50.834;6.752;2023-04-16T11:50:20;38.88;;;23.30;;
22644;SDS011;11489;50.834;6.752;2023-04-16T11:52:47;40.15;;;23.33;;
22644;SDS011;11489;50.834;6.752;2023-04-16T11:55:13;40.78;;;23.70;;
22644;SDS011;11489;50.834;6.752;2023-04-16T11:57:39;38.75;;;24.33;;
22644;SDS011;11489;50.834;6.752;2023-04-16T12:00:05;41.30;;;25.67;;
22644;SDS011;11489;50.834;6.752;2023-04-16T12:05:05;39.35;;;24.52;;
22644;SDS011;11489;50.834;6.752;2023-04-16T12:07:51;39.72;;;23.52;;
22644;SDS011;11489;50.834;6.752;2023-04-16T12:10:17;36.17;;;23.33;;
22644;SDS011;11489;50.834;6.752;2023-04-16T12:12:43;39.20;;;24.88;;
22644;SDS011;11489;50.834;6.752;2023-04-16T12:15:08;39.97;;;25.42;;
22644;SDS011;11489;50.834;6.752;2023-04-16T12:17:34;38.28;;;23.33;;
22644;SDS011;11489;50.834;6.752;2023-04-16T12:20:01;36.15;;;22.85;;
22644;SDS011;11489;50.834;6.752;2023-04-16T12:22:34;45.53;;;26.55;;
22644;SDS011;11489;50.834;6.752;2023-04-16T12:25:01;41.33;;;25.55;;
22644;SDS011;11489;50.834;6.752;2023-04-16T12:30:17;38.97;;;25.33;;
22644;SDS011;11489;50.834;6.752;2023-04-16T12:32:48;39.15;;;25.30;;
22644;SDS011;11489;50.834;6.752;2023-04-16T12:35:32;34.55;;;23.73;;
22644;SDS011;11489;50.834;6.752;2023-04-16T12:37:58;37.78;;;23.90;;
22644;SDS011;11489;50.834;6.752;2023-04-16T12:40:24;37.03;;;24.75;;
22644;SDS011;11489;50.834;6.752;2023-04-16T12:42:50;37.85;;;23.75;;
22644;SDS011;11489;50.834;6.752;2023-04-16T12:45:16;35.15;;;23.27;;
22644;SDS011;11489;50.834;6.752;2023-04-16T12:47:41;37.05;;;23.48;;
22644;SDS011;11489;50.834;6.752;2023-04-16T12:50:07;39.10;;;22.83;;
22644;SDS011;11489;50.834;6.752;2023-04-16T12:52:33;36.38;;;22.98;;
22644;SDS011;11489;50.834;6.752;2023-04-16T12:55:02;33.63;;;23.48;;
22644;SDS011;11489;50.834;6.752;2023-04-16T12:57:28;32.58;;;22.55;;
22644;SDS011;11489;50.834;6.752;2023-04-16T12:59:54;30.40;;;22.17;;
22644;SDS011;11489;50.834;6.752;2023-04-16T13:02:21;33.35;;;23.60;;
22644;SDS011;11489;50.834;6.752;2023-04-16T13:04:48;31.35;;;22.63;;
22644;SDS011;11489;50.834;6.752;2023-04-16T13:07:14;31.23;;;21.33;;
22644;SDS011;11489;50.834;6.752;2023-04-16T13:09:41;32.00;;;20.85;;
22644;SDS011;11489;50.834;6.752;2023-04-16T13:12:07;29.55;;;20.75;;
22644;SDS011;11489;50.834;6.752;2023-04-16T13:14:32;32.67;;;21.98;;
22644;SDS011;11489;50.834;6.752;2023-04-16T13:16:58;28.13;;;21.40;;
22644;SDS011;11489;50.834;6.752;2023-04-16T13:19:24;37.42;;;24.80;;
22644;SDS011;11489;50.834;6.752;2023-04-16T13:21:49;34.83;;;23.13;;
22644;SDS011;11489;50.834;6.752;2023-04-16T13:24:15;35.22;;;22.42;;
22644;SDS011;11489;50.834;6.752;2023-04-16T13:26:41;32.03;;;22.63;;
22644;SDS011;11489;50.834;6.752;2023-04-16T13:29:07;31.30;;;20.67;;
22644;SDS011;11489;50.834;6.752;2023-04-16T13:31:33;31.23;;;20.40;;
22644;SDS011;11489;50.834;6.752;2023-04-16T13:33:59;30.95;;;20.45;;
22644;SDS011;11489;50.834;6.752;2023-04-16T13:36:25;28.05;;;19.63;;
22644;SDS011;11489;50.834;6.752;2023-04-16T13:38:51;28.35;;;19.85;;
22644;SDS011;11489;50.834;6.752;2023-04-16T13:41:17;30.08;;;20.15;;
22644;SDS011;11489;50.834;6.752;2023-04-16T13:43:42;32.28;;;23.10;;
22644;SDS011;11489;50.834;6.752;2023-04-16T13:46:08;31.13;;;20.38;;
22644;SDS011;11489;50.834;6.752;2023-04-16T13:48:34;28.08;;;18.98;;
22644;SDS011;11489;50.834;6.752;2023-04-16T13:50:59;27.20;;;18.67;;
22644;SDS011;11489;50.834;6.752;2023-04-16T13:53:26;29.83;;;19.63;;
22644;SDS011;11489;50.834;6.752;2023-04-16T13:55:52;26.63;;;19.23;;
22644;SDS011;11489;50.834;6.752;2023-04-16T13:58:17;29.33;;;19.23;;
22644;SDS011;11489;50.834;6.752;2023-04-16T14:00:43;29.17;;;20.00;;
22644;SDS011;11489;50.834;6.752;2023-04-16T14:03:09;29.17;;;19.73;;
22644;SDS011;11489;50.834;6.752;2023-04-16T14:05:35;28.15;;;19.00;;
22644;SDS011;11489;50.834;6.752;2023-04-16T14:08:01;31.25;;;20.38;;
22644;SDS011;11489;50.834;6.752;2023-04-16T14:10:26;28.40;;;18.85;;
22644;SDS011;11489;50.834;6.752;2023-04-16T14:12:52;27.77;;;18.67;;
22644;SDS011;11489;50.834;6.752;2023-04-16T14:15:18;31.30;;;19.55;;
22644;SDS011;11489;50.834;6.752;2023-04-16T14:17:45;28.58;;;18.80;;
22644;SDS011;11489;50.834;6.752;2023-04-16T14:20:11;31.30;;;18.92;;
22644;SDS011;11489;50.834;6.752;2023-04-16T14:22:37;25.65;;;16.90;;
22644;SDS011;11489;50.834;6.752;2023-04-16T14:25:04;24.42;;;16.08;;
22644;SDS011;11489;50.834;6.752;2023-04-16T14:27:30;25.33;;;16.40;;
22644;SDS011;11489;50.834;6.752;2023-04-16T14:29:57;24.38;;;15.68;;
22644;SDS011;11489;50.834;6.752;2023-04-16T14:32:22;23.13;;;15.52;;
22644;SDS011;11489;50.834;6.752;2023-04-16T14:34:48;22.08;;;14.88;;
22644;SDS011;11489;50.834;6.752;2023-04-16T14:37:14;24.00;;;15.23;;
22644;SDS011;11489;50.834;6.752;2023-04-16T14:39:41;23.50;;;14.32;;